sensor_id;sensor_type;location;lat;lon;timestamp;pressure;altitude;pressure_sealevel;temperature;humidity
76297;BME280;65104;52.994;6.552;2023-04-01T00:00:51;99112.00;;;9.22;100.00
76297;BME280;65104;52.994;6.552;2023-04-01T00:03:17;99110.31;;;9.19;100.00
76297;BME280;65104;52.994;6.552;2023-04-01T00:05:43;99110.31;;;9.19;100.00
76297;BME280;65104;52.994;6.552;2023-04-01T00:08:08;99112.03;;;9.20;100.00
76297;BME280;65104;52.994;6.552;2023-04-01T00:10:33;99110.31;;;9.21;100.00
76297;BME280;65104;52.994;6.552;2023-04-01T00:12:59;99109.47;;;9.20;100.00
76297;BME280;65104;52.994;6.552;2023-04-01T00:15:25;99116.28;;;9.23;100.00
76297;BME280;65104;52.994;6.552;2023-04-01T00:17:50;99116.31;;;9.18;100.00
76297;BME280;65104;52.994;6.552;2023-04-01T00:20:15;99106.06;;;9.18;100.00
76297;BME280;65104;52.994;6.552;2023-04-01T00:22:41;99107.75;;;9.16;100.00
76297;BME280;65104;52.994;6.552;2023-04-01T00:25:07;99106.06;;;9.18;100.00
76297;BME280;65104;52.994;6.552;2023-04-01T00:27:32;99112.88;;;9.19;100.00
76297;BME280;65104;52.994;6.552;2023-04-01T00:29:58;99113.75;;;9.21;100.00
76297;BME280;65104;52.994;6.552;2023-04-01T00:32:23;99108.63;;;9.20;100.00
76297;BME280;65104;52.994;6.552;2023-04-01T00:34:52;99109.44;;;9.22;100.00
76297;BME280;65104;52.994;6.552;2023-04-01T00:37:19;99106.06;;;9.18;100.00
76297;BME280;65104;52.994;6.552;2023-04-01T00:39:46;99096.66;;;9.20;100.00
76297;BME280;65104;52.994;6.552;2023-04-01T00:42:11;99100.94;;;9.18;100.00
76297;BME280;65104;52.994;6.552;2023-04-01T00:44:38;99104.34;;;9.20;100.00
76297;BME280;65104;52.994;6.552;2023-04-01T00:47:03;99100.94;;;9.21;100.00
76297;BME280;65104;52.994;6.552;2023-04-01T00:49:41;99102.66;;;9.19;100.00
76297;BME280;65104;52.994;6.552;2023-04-01T00:52:11;99106.88;;;9.22;100.00
76297;BME280;65104;52.994;6.552;2023-04-01T00:54:38;99109.47;;;9.17;100.00
76297;BME280;65104;52.994;6.552;2023-04-01T00:59:43;99101.78;;;9.16;100.00
76297;BME280;65104;52.994;6.552;2023-04-01T01:02:11;99103.50;;;9.20;100.00
76297;BME280;65104;52.994;6.552;2023-04-01T01:04:37;99108.63;;;9.17;100.00
76297;BME280;65104;52.994;6.552;2023-04-01T01:07:14;99107.75;;;9.16;100.00
76297;BME280;65104;52.994;6.552;2023-04-01T01:13:17;99111.19;;;9.18;100.00
76297;BME280;65104;52.994;6.552;2023-04-01T01:16:00;99106.06;;;9.15;100.00
76297;BME280;65104;52.994;6.552;2023-04-01T01:18:44;99108.63;;;9.15;100.00
76297;BME280;65104;52.994;6.552;2023-04-01T01:27:02;99114.63;;;9.10;100.00
76297;BME280;65104;52.994;6.552;2023-04-01T01:29:51;99112.03;;;9.13;100.00
76297;BME280;65104;52.994;6.552;2023-04-01T01:32:44;99111.22;;;9.09;100.00
76297;BME280;65104;52.994;6.552;2023-04-01T01:38:19;99107.78;;;9.10;100.00
76297;BME280;65104;52.994;6.552;2023-04-01T01:40:49;99107.78;;;9.06;100.00
76297;BME280;65104;52.994;6.552;2023-04-01T01:43:21;99116.31;;;9.04;100.00
76297;BME280;65104;52.994;6.552;2023-04-01T01:45:52;99115.47;;;9.04;100.00
76297;BME280;65104;52.994;6.552;2023-04-01T01:48:19;99118.91;;;9.03;100.00
76297;BME280;65104;52.994;6.552;2023-04-01T01:50:45;99115.50;;;8.99;100.00
76297;BME280;65104;52.994;6.552;2023-04-01T01:53:12;99115.50;;;8.99;100.00
76297;BME280;65104;52.994;6.552;2023-04-01T01:55:40;99121.47;;;9.00;100.00
76297;BME280;65104;52.994;6.552;2023-04-01T01:58:31;99121.47;;;8.97;100.00
76297;BME280;65104;52.994;6.552;2023-04-01T02:01:03;99116.38;;;8.94;100.00
76297;BME280;65104;52.994;6.552;2023-04-01T02:03:33;99124.06;;;8.94;100.00
76297;BME280;65104;52.994;6.552;2023-04-01T02:06:01;99120.66;;;8.92;100.00
76297;BME280;65104;52.994;6.552;2023-04-01T02:08:32;99127.47;;;8.93;100.00
76297;BME280;65104;52.994;6.552;2023-04-01T02:11:06;99127.47;;;8.91;100.00
76297;BME280;65104;52.994;6.552;2023-04-01T02:13:40;99124.06;;;8.94;100.00
76297;BME280;65104;52.994;6.552;2023-04-01T02:16:13;99131.75;;;8.92;100.00
76297;BME280;65104;52.994;6.552;2023-04-01T02:18:41;99124.06;;;8.94;100.00
76297;BME280;65104;52.994;6.552;2023-04-01T02:21:08;99130.00;;;8.96;100.00
76297;BME280;65104;52.994;6.552;2023-04-01T02:23:35;99131.72;;;8.88;100.00
76297;BME280;65104;52.994;6.552;2023-04-01T02:26:05;99136.00;;;8.90;100.00
76297;BME280;65104;52.994;6.552;2023-04-01T02:28:32;99124.91;;;8.90;100.00
76297;BME280;65104;52.994;6.552;2023-04-01T02:30:59;99132.59;;;8.93;100.00
76297;BME280;65104;52.994;6.552;2023-04-01T02:33:27;99139.38;;;8.95;100.00
76297;BME280;65104;52.994;6.552;2023-04-01T02:35:52;99135.16;;;8.93;100.00
76297;BME280;65104;52.994;6.552;2023-04-01T02:38:18;99130.88;;;8.90;100.00
76297;BME280;65104;52.994;6.552;2023-04-01T02:40:57;99135.16;;;8.84;100.00
76297;BME280;65104;52.994;6.552;2023-04-01T02:43:23;99143.69;;;8.87;100.00
76297;BME280;65104;52.994;6.552;2023-04-01T02:45:48;99144.53;;;8.89;100.00
76297;BME280;65104;52.994;6.552;2023-04-01T02:48:13;99141.97;;;8.88;100.00
76297;BME280;65104;52.994;6.552;2023-04-01T02:50:39;99144.56;;;8.85;100.00
76297;BME280;65104;52.994;6.552;2023-04-01T02:53:05;99141.97;;;8.86;100.00
76297;BME280;65104;52.994;6.552;2023-04-01T02:55:32;99142.84;;;8.84;100.00
76297;BME280;65104;52.994;6.552;2023-04-01T02:57:57;99147.94;;;8.88;100.00
76297;BME280;65104;52.994;6.552;2023-04-01T03:00:24;99152.22;;;8.85;100.00
76297;BME280;65104;52.994;6.552;2023-04-01T03:02:50;99156.50;;;8.84;100.00
76297;BME280;65104;52.994;6.552;2023-04-01T03:05:15;99156.47;;;8.86;100.00
76297;BME280;65104;52.994;6.552;2023-04-01T03:07:41;99163.31;;;8.81;100.00
76297;BME280;65104;52.994;6.552;2023-04-01T03:10:06;99164.16;;;8.80;100.00
76297;BME280;65104;52.994;6.552;2023-04-01T03:12:32;99159.91;;;8.79;100.00
76297;BME280;65104;52.994;6.552;2023-04-01T03:14:57;99166.72;;;8.81;100.00
76297;BME280;65104;52.994;6.552;2023-04-01T03:17:23;99169.28;;;8.81;100.00
76297;BME280;65104;52.994;6.552;2023-04-01T03:19:48;99165.88;;;8.79;100.00
76297;BME280;65104;52.994;6.552;2023-04-01T03:22:13;99170.13;;;8.80;100.00
76297;BME280;65104;52.994;6.552;2023-04-01T03:24:39;99171.00;;;8.81;100.00
76297;BME280;65104;52.994;6.552;2023-04-01T03:27:05;99171.84;;;8.83;100.00
76297;BME280;65104;52.994;6.552;2023-04-01T03:29:30;99179.53;;;8.77;100.00
76297;BME280;65104;52.994;6.552;2023-04-01T03:31:55;99179.53;;;8.80;100.00
76297;BME280;65104;52.994;6.552;2023-04-01T03:34:23;99186.38;;;8.76;100.00
76297;BME280;65104;52.994;6.552;2023-04-01T03:36:49;99182.94;;;8.76;100.00
76297;BME280;65104;52.994;6.552;2023-04-01T03:39:14;99182.06;;;8.80;100.00
76297;BME280;65104;52.994;6.552;2023-04-01T03:41:44;99185.50;;;8.82;100.00
76297;BME280;65104;52.994;6.552;2023-04-01T03:44:09;99193.19;;;8.83;100.00
76297;BME280;65104;52.994;6.552;2023-04-01T03:46:34;99190.63;;;8.80;100.00
76297;BME280;65104;52.994;6.552;2023-04-01T03:49:00;99196.59;;;8.85;100.00
76297;BME280;65104;52.994;6.552;2023-04-01T03:51:25;99189.75;;;8.89;100.00
76297;BME280;65104;52.994;6.552;2023-04-01T03:53:51;99200.00;;;8.90;100.00
76297;BME280;65104;52.994;6.552;2023-04-01T03:56:16;99203.41;;;8.89;100.00
76297;BME280;65104;52.994;6.552;2023-04-01T03:58:41;99205.13;;;8.92;100.00
76297;BME280;65104;52.994;6.552;2023-04-01T04:01:14;99200.00;;;8.92;100.00
76297;BME280;65104;52.994;6.552;2023-04-01T04:03:40;99206.81;;;8.93;100.00
76297;BME280;65104;52.994;6.552;2023-04-01T04:06:07;99211.06;;;8.95;100.00
76297;BME280;65104;52.994;6.552;2023-04-01T04:08:35;99212.78;;;8.90;100.00
76297;BME280;65104;52.994;6.552;2023-04-01T04:11:00;99209.38;;;8.91;100.00
76297;BME280;65104;52.994;6.552;2023-04-01T04:13:26;99216.19;;;8.95;100.00
76297;BME280;65104;52.994;6.552;2023-04-01T04:15:51;99209.38;;;8.94;100.00
76297;BME280;65104;52.994;6.552;2023-04-01T04:18:16;99216.22;;;8.94;100.00
76297;BME280;65104;52.994;6.552;2023-04-01T04:20:45;99215.34;;;8.95;100.00
76297;BME280;65104;52.994;6.552;2023-04-01T04:23:13;99215.34;;;8.96;100.00
76297;BME280;65104;52.994;6.552;2023-04-01T04:25:38;99217.91;;;8.92;100.00
76297;BME280;65104;52.994;6.552;2023-04-01T04:28:04;99219.59;;;8.97;100.00
76297;BME280;65104;52.994;6.552;2023-04-01T04:30:29;99227.28;;;8.99;100.00
76297;BME280;65104;52.994;6.552;2023-04-01T04:32:55;99231.56;;;8.98;100.00
76297;BME280;65104;52.994;6.552;2023-04-01T04:35:20;99229.00;;;9.00;100.00
76297;BME280;65104;52.994;6.552;2023-04-01T04:37:45;99234.97;;;9.02;100.00
76297;BME280;65104;52.994;6.552;2023-04-01T04:40:11;99237.53;;;8.99;100.00
76297;BME280;65104;52.994;6.552;2023-04-01T04:42:36;99234.09;;;8.97;100.00
76297;BME280;65104;52.994;6.552;2023-04-01T04:45:02;99242.66;;;8.99;100.00
76297;BME280;65104;52.994;6.552;2023-04-01T04:47:28;99240.94;;;9.01;100.00
76297;BME280;65104;52.994;6.552;2023-04-01T04:49:53;99246.06;;;8.98;100.00
76297;BME280;65104;52.994;6.552;2023-04-01T04:52:18;99255.44;;;8.99;100.00
76297;BME280;65104;52.994;6.552;2023-04-01T04:54:44;99252.91;;;9.00;100.00
76297;BME280;65104;52.994;6.552;2023-04-01T04:57:09;99258.03;;;9.00;100.00
76297;BME280;65104;52.994;6.552;2023-04-01T04:59:35;99264.00;;;8.99;100.00
76297;BME280;65104;52.994;6.552;2023-04-01T05:02:01;99265.69;;;9.00;100.00
76297;BME280;65104;52.994;6.552;2023-04-01T05:04:27;99262.28;;;9.03;100.00
76297;BME280;65104;52.994;6.552;2023-04-01T05:06:52;99269.97;;;9.03;100.00
76297;BME280;65104;52.994;6.552;2023-04-01T05:09:18;99269.97;;;9.00;100.00
76297;BME280;65104;52.994;6.552;2023-04-01T05:11:43;99272.53;;;9.00;100.00
76297;BME280;65104;52.994;6.552;2023-04-01T05:14:13;99279.34;;;9.04;100.00
76297;BME280;65104;52.994;6.552;2023-04-01T05:16:39;99280.19;;;9.00;100.00
76297;BME280;65104;52.994;6.552;2023-04-01T05:19:04;99285.34;;;9.03;100.00
76297;BME280;65104;52.994;6.552;2023-04-01T05:21:30;99289.59;;;8.99;100.00
76297;BME280;65104;52.994;6.552;2023-04-01T05:23:55;99293.84;;;8.99;100.00
76297;BME280;65104;52.994;6.552;2023-04-01T05:26:21;99293.00;;;9.00;100.00
76297;BME280;65104;52.994;6.552;2023-04-01T05:28:46;99289.59;;;8.99;100.00
76297;BME280;65104;52.994;6.552;2023-04-01T05:31:11;99289.59;;;9.01;100.00
76297;BME280;65104;52.994;6.552;2023-04-01T05:33:37;99291.28;;;8.99;100.00
76297;BME280;65104;52.994;6.552;2023-04-01T05:36:09;99296.41;;;8.99;100.00
76297;BME280;65104;52.994;6.552;2023-04-01T05:38:35;99303.22;;;8.97;100.00
76297;BME280;65104;52.994;6.552;2023-04-01T05:41:02;99308.38;;;9.03;100.00
76297;BME280;65104;52.994;6.552;2023-04-01T05:43:27;99309.22;;;9.05;100.00
76297;BME280;65104;52.994;6.552;2023-04-01T05:45:53;99314.31;;;9.05;100.00
76297;BME280;65104;52.994;6.552;2023-04-01T05:48:18;99315.19;;;9.04;100.00
76297;BME280;65104;52.994;6.552;2023-04-01T05:50:43;99314.34;;;9.02;100.00
76297;BME280;65104;52.994;6.552;2023-04-01T05:53:09;99318.59;;;9.06;100.00
76297;BME280;65104;52.994;6.552;2023-04-01T05:55:35;99328.00;;;9.09;100.00
76297;BME280;65104;52.994;6.552;2023-04-01T05:58:01;99333.97;;;8.98;100.00
76297;BME280;65104;52.994;6.552;2023-04-01T06:00:26;99331.41;;;8.97;100.00
76297;BME280;65104;52.994;6.552;2023-04-01T06:02:52;99334.81;;;8.97;100.00
76297;BME280;65104;52.994;6.552;2023-04-01T06:07:44;99339.09;;;8.98;100.00
76297;BME280;65104;52.994;6.552;2023-04-01T06:10:20;99351.03;;;8.92;100.00
76297;BME280;65104;52.994;6.552;2023-04-01T06:15:23;99359.56;;;8.95;100.00
76297;BME280;65104;52.994;6.552;2023-04-01T06:25:41;99372.34;;;8.95;100.00
76297;BME280;65104;52.994;6.552;2023-04-01T06:30:51;99384.31;;;8.92;100.00
76297;BME280;65104;52.994;6.552;2023-04-01T06:36:19;99381.72;;;8.95;100.00
76297;BME280;65104;52.994;6.552;2023-04-01T06:39:33;99382.59;;;8.92;100.00
76297;BME280;65104;52.994;6.552;2023-04-01T06:42:21;99391.97;;;8.96;100.00
76297;BME280;65104;52.994;6.552;2023-04-01T06:45:08;99401.41;;;9.00;100.00
76297;BME280;65104;52.994;6.552;2023-04-01T06:48:00;99397.97;;;8.98;100.00
76297;BME280;65104;52.994;6.552;2023-04-01T06:53:12;99408.19;;;8.97;100.00
76297;BME280;65104;52.994;6.552;2023-04-01T06:55:46;99411.63;;;8.97;100.00
76297;BME280;65104;52.994;6.552;2023-04-01T06:58:29;99412.50;;;9.01;100.00
76297;BME280;65104;52.994;6.552;2023-04-01T07:00:58;99420.16;;;8.98;100.00
76297;BME280;65104;52.994;6.552;2023-04-01T07:03:39;99426.13;;;9.04;100.00
76297;BME280;65104;52.994;6.552;2023-04-01T07:06:14;99429.56;;;9.10;100.00
76297;BME280;65104;52.994;6.552;2023-04-01T07:08:44;99427.88;;;9.10;100.00
76297;BME280;65104;52.994;6.552;2023-04-01T07:11:28;99432.13;;;9.16;100.00
76297;BME280;65104;52.994;6.552;2023-04-01T07:14:22;99443.28;;;9.28;100.00
76297;BME280;65104;52.994;6.552;2023-04-01T07:17:04;99440.69;;;9.31;100.00
76297;BME280;65104;52.994;6.552;2023-04-01T07:22:34;99445.88;;;9.48;100.00
76297;BME280;65104;52.994;6.552;2023-04-01T07:25:07;99455.25;;;9.63;100.00
76297;BME280;65104;52.994;6.552;2023-04-01T07:27:36;99457.81;;;9.69;100.00
76297;BME280;65104;52.994;6.552;2023-04-01T07:30:06;99460.38;;;9.79;100.00
76297;BME280;65104;52.994;6.552;2023-04-01T07:32:59;99471.47;;;9.89;100.00
76297;BME280;65104;52.994;6.552;2023-04-01T07:35:56;99470.63;;;9.83;100.00
76297;BME280;65104;52.994;6.552;2023-04-01T07:41:32;99474.91;;;10.09;100.00
76297;BME280;65104;52.994;6.552;2023-04-01T07:44:33;99475.72;;;10.16;100.00
76297;BME280;65104;52.994;6.552;2023-04-01T07:52:39;99489.44;;;10.29;100.00
76297;BME280;65104;52.994;6.552;2023-04-01T07:57:53;99500.53;;;10.37;100.00
76297;BME280;65104;52.994;6.552;2023-04-01T08:00:33;99507.34;;;10.51;100.00
76297;BME280;65104;52.994;6.552;2023-04-01T08:08:52;99508.97;;;10.75;100.00
76297;BME280;65104;52.994;6.552;2023-04-01T08:14:04;99514.84;;;11.09;100.00
76297;BME280;65104;52.994;6.552;2023-04-01T08:16:46;99524.28;;;11.09;100.00
76297;BME280;65104;52.994;6.552;2023-04-01T08:21:52;99532.03;;;10.92;100.00
76297;BME280;65104;52.994;6.552;2023-04-01T08:24:25;99534.50;;;11.16;100.00
76297;BME280;65104;52.994;6.552;2023-04-01T08:26:59;99534.56;;;11.07;100.00
76297;BME280;65104;52.994;6.552;2023-04-01T08:29:46;99539.72;;;11.00;100.00
76297;BME280;65104;52.994;6.552;2023-04-01T08:32:32;99541.44;;;10.93;100.00
76297;BME280;65104;52.994;6.552;2023-04-01T08:35:26;99546.69;;;10.60;100.00
76297;BME280;65104;52.994;6.552;2023-04-01T08:37:53;99557.81;;;10.51;100.00
76297;BME280;65104;52.994;6.552;2023-04-01T08:40:39;99550.09;;;10.60;100.00
76297;BME280;65104;52.994;6.552;2023-04-01T08:45:41;99568.97;;;10.45;100.00
76297;BME280;65104;52.994;6.552;2023-04-01T08:48:35;99567.22;;;10.52;100.00
76297;BME280;65104;52.994;6.552;2023-04-01T08:59:55;99593.78;;;10.27;100.00
76297;BME280;65104;52.994;6.552;2023-04-01T09:02:48;99597.19;;;10.23;100.00
76297;BME280;65104;52.994;6.552;2023-04-01T09:11:08;99608.25;;;10.15;100.00
76297;BME280;65104;52.994;6.552;2023-04-01T09:22:17;99623.72;;;10.28;100.00
76297;BME280;65104;52.994;6.552;2023-04-01T09:24:52;99620.25;;;10.50;100.00
76297;BME280;65104;52.994;6.552;2023-04-01T09:35:45;99634.78;;;10.77;100.00
76297;BME280;65104;52.994;6.552;2023-04-01T09:41:52;99649.34;;;10.88;100.00
76297;BME280;65104;52.994;6.552;2023-04-01T09:44:04;99648.47;;;10.99;100.00
76297;BME280;65104;52.994;6.552;2023-04-01T09:49:17;99657.00;;;11.02;100.00
76297;BME280;65104;52.994;6.552;2023-04-01T10:02:38;99680.06;;;11.29;98.84
76297;BME280;65104;52.994;6.552;2023-04-01T10:05:19;99681.75;;;11.38;99.07
76297;BME280;65104;52.994;6.552;2023-04-01T10:11:45;99691.28;;;10.89;99.67
76297;BME280;65104;52.994;6.552;2023-04-01T10:28:00;99732.97;;;9.74;100.00
76297;BME280;65104;52.994;6.552;2023-04-01T10:45:07;99754.22;;;9.53;100.00
76297;BME280;65104;52.994;6.552;2023-04-01T10:53:16;99762.84;;;9.66;100.00
76297;BME280;65104;52.994;6.552;2023-04-01T11:01:45;99773.03;;;9.58;100.00
76297;BME280;65104;52.994;6.552;2023-04-01T11:19:29;99803.84;;;9.66;100.00
76297;BME280;65104;52.994;6.552;2023-04-01T11:37:59;99831.72;;;9.25;100.00
76297;BME280;65104;52.994;6.552;2023-04-01T11:40:33;99841.94;;;9.17;100.00
76297;BME280;65104;52.994;6.552;2023-04-01T11:43:14;99842.88;;;9.28;100.00
76297;BME280;65104;52.994;6.552;2023-04-01T11:51:02;99858.28;;;9.33;100.00
76297;BME280;65104;52.994;6.552;2023-04-01T11:54:00;99859.22;;;9.44;100.00
76297;BME280;65104;52.994;6.552;2023-04-01T12:01:47;99877.84;;;9.25;100.00
76297;BME280;65104;52.994;6.552;2023-04-01T12:09:56;99884.88;;;9.47;100.00
76297;BME280;65104;52.994;6.552;2023-04-01T12:12:32;99897.69;;;9.47;100.00
76297;BME280;65104;52.994;6.552;2023-04-01T12:18:00;99908.88;;;9.57;100.00
76297;BME280;65104;52.994;6.552;2023-04-01T12:20:44;99912.34;;;9.65;100.00
76297;BME280;65104;52.994;6.552;2023-04-01T12:23:39;99913.97;;;9.58;100.00
76297;BME280;65104;52.994;6.552;2023-04-01T12:37:24;99937.13;;;9.64;100.00
76297;BME280;65104;52.994;6.552;2023-04-01T12:42:59;99951.50;;;9.49;99.87
76297;BME280;65104;52.994;6.552;2023-04-01T12:45:32;99952.19;;;9.32;100.00
76297;BME280;65104;52.994;6.552;2023-04-01T12:55:45;99974.50;;;9.41;100.00
76297;BME280;65104;52.994;6.552;2023-04-01T13:01:29;99984.72;;;9.36;98.59
76297;BME280;65104;52.994;6.552;2023-04-01T13:04:23;99991.47;;;9.28;98.18
76297;BME280;65104;52.994;6.552;2023-04-01T13:15:24;100014.34;;;9.15;100.00
76297;BME280;65104;52.994;6.552;2023-04-01T13:20:53;100029.59;;;9.04;99.58
76297;BME280;65104;52.994;6.552;2023-04-01T13:23:24;100041.22;;;8.78;100.00
76297;BME280;65104;52.994;6.552;2023-04-01T13:26:17;100039.59;;;8.83;99.64
76297;BME280;65104;52.994;6.552;2023-04-01T13:34:03;100051.44;;;8.78;99.52
76297;BME280;65104;52.994;6.552;2023-04-01T13:42:25;100058.47;;;8.92;100.00
76297;BME280;65104;52.994;6.552;2023-04-01T13:53:01;100075.38;;;8.80;99.45
76297;BME280;65104;52.994;6.552;2023-04-01T13:55:46;100081.13;;;8.63;99.45
76297;BME280;65104;52.994;6.552;2023-04-01T14:04:19;100098.22;;;8.66;100.00
76297;BME280;65104;52.994;6.552;2023-04-01T14:07:00;100106.59;;;8.56;100.00
76297;BME280;65104;52.994;6.552;2023-04-01T14:10:02;100111.06;;;8.68;100.00
76297;BME280;65104;52.994;6.552;2023-04-01T14:15:37;100121.06;;;8.54;100.00
76297;BME280;65104;52.994;6.552;2023-04-01T14:32:48;100163.50;;;8.41;99.20
76297;BME280;65104;52.994;6.552;2023-04-01T14:38:17;100172.22;;;8.52;98.55
76297;BME280;65104;52.994;6.552;2023-04-01T14:51:40;100190.78;;;8.39;99.03
76297;BME280;65104;52.994;6.552;2023-04-01T14:54:30;100199.38;;;8.44;98.51
76297;BME280;65104;52.994;6.552;2023-04-01T15:10:58;100222.88;;;8.25;98.67
76297;BME280;65104;52.994;6.552;2023-04-01T15:13:36;100234.63;;;8.15;98.25
76297;BME280;65104;52.994;6.552;2023-04-01T15:24:03;100256.78;;;8.15;97.32
76297;BME280;65104;52.994;6.552;2023-04-01T15:27:10;100258.47;;;8.13;97.35
76297;BME280;65104;52.994;6.552;2023-04-01T15:37:56;100293.16;;;8.00;97.67
76297;BME280;65104;52.994;6.552;2023-04-01T15:40:31;100299.19;;;8.04;97.72
76297;BME280;65104;52.994;6.552;2023-04-01T15:56:45;100337.66;;;7.69;98.04
76297;BME280;65104;52.994;6.552;2023-04-01T16:04:31;100347.59;;;7.57;97.33
76297;BME280;65104;52.994;6.552;2023-04-01T16:07:40;100363.38;;;7.39;96.99
76297;BME280;65104;52.994;6.552;2023-04-01T16:10:29;100372.81;;;7.43;97.54
76297;BME280;65104;52.994;6.552;2023-04-01T16:13:09;100374.16;;;7.28;96.77
76297;BME280;65104;52.994;6.552;2023-04-01T16:18:38;100386.28;;;7.36;97.01
76297;BME280;65104;52.994;6.552;2023-04-01T16:21:36;100393.94;;;7.36;97.27
76297;BME280;65104;52.994;6.552;2023-04-01T16:26:54;100414.97;;;7.26;96.91
76297;BME280;65104;52.994;6.552;2023-04-01T16:29:32;100410.03;;;7.34;98.32
76297;BME280;65104;52.994;6.552;2023-04-01T16:32:23;100416.34;;;7.13;97.06
76297;BME280;65104;52.994;6.552;2023-04-01T16:38:00;100430.84;;;7.14;97.66
76297;BME280;65104;52.994;6.552;2023-04-01T16:40:40;100440.09;;;7.11;96.76
76297;BME280;65104;52.994;6.552;2023-04-01T16:43:25;100443.28;;;7.02;97.01
76297;BME280;65104;52.994;6.552;2023-04-01T16:46:05;100448.50;;;7.05;97.44
76297;BME280;65104;52.994;6.552;2023-04-01T16:51:18;100457.88;;;7.06;97.80
76297;BME280;65104;52.994;6.552;2023-04-01T16:53:50;100468.09;;;7.06;97.55
76297;BME280;65104;52.994;6.552;2023-04-01T16:56:36;100478.81;;;6.95;96.81
76297;BME280;65104;52.994;6.552;2023-04-01T17:01:43;100491.59;;;6.95;96.03
76297;BME280;65104;52.994;6.552;2023-04-01T17:04:40;100490.56;;;6.88;96.48
76297;BME280;65104;52.994;6.552;2023-04-01T17:07:22;100503.47;;;6.94;96.39
76297;BME280;65104;52.994;6.552;2023-04-01T17:15:17;100515.97;;;6.85;96.42
76297;BME280;65104;52.994;6.552;2023-04-01T17:20:35;100523.34;;;6.74;96.04
76297;BME280;65104;52.994;6.552;2023-04-01T17:23:27;100540.31;;;6.74;96.70
76297;BME280;65104;52.994;6.552;2023-04-01T17:28:46;100551.56;;;6.79;97.54
76297;BME280;65104;52.994;6.552;2023-04-01T17:31:33;100558.31;;;6.50;95.92
76297;BME280;65104;52.994;6.552;2023-04-01T17:39:43;100576.00;;;6.44;97.21
76297;BME280;65104;52.994;6.552;2023-04-01T17:42:34;100588.59;;;6.39;95.89
76297;BME280;65104;52.994;6.552;2023-04-01T17:45:21;100595.25;;;6.34;96.35
76297;BME280;65104;52.994;6.552;2023-04-01T17:51:12;100608.72;;;6.30;96.65
76297;BME280;65104;52.994;6.552;2023-04-01T17:54:05;100614.91;;;6.38;96.35
76297;BME280;65104;52.994;6.552;2023-04-01T17:59:18;100636.66;;;6.27;96.38
76297;BME280;65104;52.994;6.552;2023-04-01T18:04:40;100636.63;;;6.26;96.49
76297;BME280;65104;52.994;6.552;2023-04-01T18:07:23;100649.31;;;6.24;97.50
76297;BME280;65104;52.994;6.552;2023-04-01T18:18:48;100677.13;;;6.18;97.76
76297;BME280;65104;52.994;6.552;2023-04-01T18:21:43;100687.44;;;6.21;98.61
76297;BME280;65104;52.994;6.552;2023-04-01T18:24:28;100689.53;;;6.08;99.34
76297;BME280;65104;52.994;6.552;2023-04-01T18:32:12;100713.38;;;6.10;98.65
76297;BME280;65104;52.994;6.552;2023-04-01T18:34:51;100723.22;;;5.99;99.47
76297;BME280;65104;52.994;6.552;2023-04-01T18:42:55;100747.84;;;5.98;99.17
76297;BME280;65104;52.994;6.552;2023-04-01T18:47:59;100754.44;;;5.93;98.52
76297;BME280;65104;52.994;6.552;2023-04-01T18:50:43;100767.84;;;5.88;99.35
76297;BME280;65104;52.994;6.552;2023-04-01T18:55:53;100771.97;;;5.86;98.46
76297;BME280;65104;52.994;6.552;2023-04-01T18:58:26;100787.94;;;5.82;98.70
76297;BME280;65104;52.994;6.552;2023-04-01T19:06:21;100799.00;;;5.82;98.13
76297;BME280;65104;52.994;6.552;2023-04-01T19:08:48;100804.09;;;5.81;98.19
76297;BME280;65104;52.994;6.552;2023-04-01T19:11:23;100818.44;;;5.79;98.25
76297;BME280;65104;52.994;6.552;2023-04-01T19:21:44;100845.06;;;5.64;96.84
76297;BME280;65104;52.994;6.552;2023-04-01T19:30:04;100857.84;;;5.66;97.48
76297;BME280;65104;52.994;6.552;2023-04-01T19:33:13;100857.91;;;5.68;96.62
76297;BME280;65104;52.994;6.552;2023-04-01T19:35:55;100863.88;;;5.68;97.42
76297;BME280;65104;52.994;6.552;2023-04-01T19:41:35;100869.34;;;5.56;95.53
76297;BME280;65104;52.994;6.552;2023-04-01T19:44:16;100879.69;;;5.59;96.47
76297;BME280;65104;52.994;6.552;2023-04-01T19:49:53;100898.25;;;5.57;96.46
76297;BME280;65104;52.994;6.552;2023-04-01T19:52:33;100900.88;;;5.58;96.02
76297;BME280;65104;52.994;6.552;2023-04-01T19:57:54;100914.97;;;5.50;96.19
76297;BME280;65104;52.994;6.552;2023-04-01T20:00:41;100918.97;;;5.44;95.68
76297;BME280;65104;52.994;6.552;2023-04-01T20:03:32;100929.59;;;5.54;96.07
76297;BME280;65104;52.994;6.552;2023-04-01T20:17:01;100972.34;;;5.21;96.16
76297;BME280;65104;52.994;6.552;2023-04-01T20:19:42;100975.50;;;5.16;95.05
76297;BME280;65104;52.994;6.552;2023-04-01T20:22:34;100977.03;;;5.12;95.70
76297;BME280;65104;52.994;6.552;2023-04-01T20:25:12;100978.06;;;5.16;95.85
76297;BME280;65104;52.994;6.552;2023-04-01T20:27:47;100992.13;;;5.08;95.25
76297;BME280;65104;52.994;6.552;2023-04-01T20:30:30;101012.34;;;5.05;94.98
76297;BME280;65104;52.994;6.552;2023-04-01T20:36:21;101007.66;;;5.14;95.57
76297;BME280;65104;52.994;6.552;2023-04-01T20:39:08;101004.16;;;5.12;94.54
76297;BME280;65104;52.994;6.552;2023-04-01T20:42:02;101020.94;;;5.07;94.86
76297;BME280;65104;52.994;6.552;2023-04-01T20:49:50;101037.66;;;5.02;95.43
76297;BME280;65104;52.994;6.552;2023-04-01T20:52:32;101037.66;;;5.02;95.06
76297;BME280;65104;52.994;6.552;2023-04-01T20:57:45;101045.34;;;5.03;95.34
76297;BME280;65104;52.994;6.552;2023-04-01T21:00:40;101051.06;;;4.98;94.31
76297;BME280;65104;52.994;6.552;2023-04-01T21:09:11;101067.53;;;5.06;93.87
76297;BME280;65104;52.994;6.552;2023-04-01T21:14:42;101078.84;;;4.93;94.66
76297;BME280;65104;52.994;6.552;2023-04-01T21:17:26;101081.38;;;4.93;93.42
76297;BME280;65104;52.994;6.552;2023-04-01T21:23:10;101102.59;;;4.94;93.38
76297;BME280;65104;52.994;6.552;2023-04-01T21:28:46;101102.00;;;4.80;93.40
76297;BME280;65104;52.994;6.552;2023-04-01T21:42:40;101135.56;;;4.90;92.30